Forbes Field
KFOE : now visible

Airfield :











YOU CAN JOIN US ON...

 
LOGIN :

Register | Disclaimer

   EN    FR    IT 

 









Legend :    VFR   Marginal VFR   IFR   Intensive IFR   Very Intensive IFR
Visi :
Ceiling :
>= 8 km
>= 3000ft
5 to 8 km
1000 to 3000 ft
1500m to 5 km
500 to 1000 ft
800 to 1500m
200 to 500 ft
< 800m
< 200 ft
Symbols :   Thunderstorms  Fog  Heavy snow  Heavy precipitations  Wind > 20 kt






- Airport Elevation : 1078 ft
- IATA code : FOE


KFOE - Forbes Field

CURRENT METAR :
  • 221053Z 12007KT 1/4SM FG VV001 12/12 A2986 RMK AO2 SLP109 T01220122 RVRNO

EXPIRED METARs :
  • 221030Z AUTO 11006KT 1/4SM FG VV001 12/12 A2986 RMK AO2 T01170117 RVRNO
  • 220953Z AUTO 11005KT 1/4SM FG VV002 11/11 A2987 RMK AO2 SLP116 T01110111 RVRNO
  • 220853Z AUTO 12005KT 1/4SM FG VV002 11/11 A2989 RMK AO2 SLP120 T01060106 58021 RVRNO

TAF KFOE
Valid from the 22 at 06:00 until the 23 at 06:00 UTC


220525Z 2206/2306 07004KT 1/4SM FG VV002 WS013/21040KT
FM221200 17012KT 6SM BR FEW002 WS010/19050KT
FM221500 19022G34KT P6SM FEW020
FM230100 34013G23KT P6SM VCTS SCT015 BKN025CB
KZKC FIR / North America



MET'MAP, your aeronautical weather chart ! - Copyright ORBIFLY December 2007 - Disclaimer

ORBIFLY MET'MAP TEAM :

Programming & Development : Alexandra Zaïnal
Concept & original design : Baudouin d'Aumeries
Assistance for programming : Marc-Olivier Méhu
Technical & hardware support : Manuel Goepfert

Contact : metmap@orbifly.com




SOURCES & CREDITS :

   NOAA       Earth
Advisory